sensor_id;sensor_type;location;lat;lon;timestamp;pressure;altitude;pressure_sealevel;temperature;humidity
60337;BME280;46978;50.288;28.624;2023-02-03T00:00:58;98490.76;;;-0.63;100.00
60337;BME280;46978;50.288;28.624;2023-02-03T00:02:00;98486.52;;;-0.61;100.00
60337;BME280;46978;50.288;28.624;2023-02-03T00:03:02;98484.00;;;-0.60;100.00
60337;BME280;46978;50.288;28.624;2023-02-03T00:04:04;98484.84;;;-0.59;100.00
60337;BME280;46978;50.288;28.624;2023-02-03T00:05:07;98484.87;;;-0.56;100.00
60337;BME280;46978;50.288;28.624;2023-02-03T00:06:09;98485.75;;;-0.56;100.00
60337;BME280;46978;50.288;28.624;2023-02-03T00:07:12;98489.99;;;-0.55;100.00
60337;BME280;46978;50.288;28.624;2023-02-03T00:08:15;98489.17;;;-0.53;100.00
60337;BME280;46978;50.288;28.624;2023-02-03T00:09:18;98492.56;;;-0.53;100.00
60337;BME280;46978;50.288;28.624;2023-02-03T00:10:21;98482.37;;;-0.53;100.00
60337;BME280;46978;50.288;28.624;2023-02-03T00:11:23;98485.80;;;-0.52;100.00
60337;BME280;46978;50.288;28.624;2023-02-03T00:12:24;98486.64;;;-0.52;100.00
60337;BME280;46978;50.288;28.624;2023-02-03T00:13:26;98488.34;;;-0.52;100.00
60337;BME280;46978;50.288;28.624;2023-02-03T00:14:28;98488.34;;;-0.52;100.00
60337;BME280;46978;50.288;28.624;2023-02-03T00:15:30;98484.94;;;-0.51;100.00
60337;BME280;46978;50.288;28.624;2023-02-03T00:16:33;98487.48;;;-0.51;100.00
60337;BME280;46978;50.288;28.624;2023-02-03T00:17:35;98490.03;;;-0.51;100.00
60337;BME280;46978;50.288;28.624;2023-02-03T00:18:37;98495.98;;;-0.52;100.00
60337;BME280;46978;50.288;28.624;2023-02-03T00:19:39;98490.88;;;-0.54;100.00
60337;BME280;46978;50.288;28.624;2023-02-03T00:20:40;98487.43;;;-0.56;100.00
60337;BME280;46978;50.288;28.624;2023-02-03T00:21:42;98492.50;;;-0.58;100.00
60337;BME280;46978;50.288;28.624;2023-02-03T00:22:44;98489.09;;;-0.60;100.00
60337;BME280;46978;50.288;28.624;2023-02-03T00:23:46;98500.98;;;-0.60;100.00
60337;BME280;46978;50.288;28.624;2023-02-03T00:24:47;98497.55;;;-0.62;100.00
60337;BME280;46978;50.288;28.624;2023-02-03T00:25:49;98493.30;;;-0.63;100.00
60337;BME280;46978;50.288;28.624;2023-02-03T00:26:51;98498.42;;;-0.62;100.00
60337;BME280;46978;50.288;28.624;2023-02-03T00:27:52;98499.27;;;-0.61;100.00
60337;BME280;46978;50.288;28.624;2023-02-03T00:28:54;98493.33;;;-0.62;100.00
60337;BME280;46978;50.288;28.624;2023-02-03T00:29:55;98495.02;;;-0.61;100.00
60337;BME280;46978;50.288;28.624;2023-02-03T00:30:57;98498.45;;;-0.59;100.00
60337;BME280;46978;50.288;28.624;2023-02-03T00:31:59;98495.07;;;-0.56;100.00
60337;BME280;46978;50.288;28.624;2023-02-03T00:33:01;98495.09;;;-0.55;100.00
60337;BME280;46978;50.288;28.624;2023-02-03T00:34:03;98496.81;;;-0.53;100.00
60337;BME280;46978;50.288;28.624;2023-02-03T00:35:06;98492.56;;;-0.53;100.00
60337;BME280;46978;50.288;28.624;2023-02-03T00:36:09;98498.55;;;-0.51;100.00
60337;BME280;46978;50.288;28.624;2023-02-03T00:37:12;98501.95;;;-0.50;100.00
60337;BME280;46978;50.288;28.624;2023-02-03T00:38:14;98501.95;;;-0.50;100.00
60337;BME280;46978;50.288;28.624;2023-02-03T00:39:16;98497.67;;;-0.51;100.00
60337;BME280;46978;50.288;28.624;2023-02-03T00:40:18;98492.56;;;-0.53;100.00
60337;BME280;46978;50.288;28.624;2023-02-03T00:41:21;98499.36;;;-0.53;100.00
60337;BME280;46978;50.288;28.624;2023-02-03T00:42:22;98497.66;;;-0.53;100.00
60337;BME280;46978;50.288;28.624;2023-02-03T00:43:24;98501.08;;;-0.52;100.00
60337;BME280;46978;50.288;28.624;2023-02-03T00:44:26;98498.53;;;-0.52;100.00
60337;BME280;46978;50.288;28.624;2023-02-03T00:45:27;98496.80;;;-0.55;100.00
60337;BME280;46978;50.288;28.624;2023-02-03T00:46:49;98496.80;;;-0.55;100.00
60337;BME280;46978;50.288;28.624;2023-02-03T00:47:50;98503.61;;;-0.54;100.00
60337;BME280;46978;50.288;28.624;2023-02-03T00:48:52;98498.53;;;-0.52;100.00
60337;BME280;46978;50.288;28.624;2023-02-03T00:49:54;98502.75;;;-0.53;100.00
60337;BME280;46978;50.288;28.624;2023-02-03T00:50:56;98501.91;;;-0.53;100.00
60337;BME280;46978;50.288;28.624;2023-02-03T00:51:57;98498.52;;;-0.54;100.00
60337;BME280;46978;50.288;28.624;2023-02-03T00:52:59;98495.97;;;-0.54;100.00
60337;BME280;46978;50.288;28.624;2023-02-03T00:54:00;98502.75;;;-0.53;100.00
60337;BME280;46978;50.288;28.624;2023-02-03T00:55:04;98501.06;;;-0.54;100.00
60337;BME280;46978;50.288;28.624;2023-02-03T00:56:06;98501.05;;;-0.56;100.00
60337;BME280;46978;50.288;28.624;2023-02-03T00:57:08;98501.03;;;-0.57;100.00
60337;BME280;46978;50.288;28.624;2023-02-03T00:58:09;98506.14;;;-0.56;100.00
60337;BME280;46978;50.288;28.624;2023-02-03T00:59:11;98506.97;;;-0.57;100.00
60337;BME280;46978;50.288;28.624;2023-02-03T01:00:15;98505.24;;;-0.58;100.00
60337;BME280;46978;50.288;28.624;2023-02-03T01:01:17;98501.85;;;-0.58;100.00
60337;BME280;46978;50.288;28.624;2023-02-03T01:02:19;98502.70;;;-0.58;100.00
60337;BME280;46978;50.288;28.624;2023-02-03T01:03:21;98503.59;;;-0.56;100.00
60337;BME280;46978;50.288;28.624;2023-02-03T01:04:23;98509.53;;;-0.55;100.00
60337;BME280;46978;50.288;28.624;2023-02-03T01:05:25;98509.55;;;-0.53;100.00
60337;BME280;46978;50.288;28.624;2023-02-03T01:06:27;98511.27;;;-0.52;100.00
60337;BME280;46978;50.288;28.624;2023-02-03T01:07:31;98506.18;;;-0.52;100.00
60337;BME280;46978;50.288;28.624;2023-02-03T01:08:32;98509.58;;;-0.52;100.00
60337;BME280;46978;50.288;28.624;2023-02-03T01:09:35;98506.20;;;-0.51;100.00
60337;BME280;46978;50.288;28.624;2023-02-03T01:10:38;98501.10;;;-0.51;100.00
60337;BME280;46978;50.288;28.624;2023-02-03T01:11:40;98502.77;;;-0.51;100.00
60337;BME280;46978;50.288;28.624;2023-02-03T01:12:41;98508.75;;;-0.51;100.00
60337;BME280;46978;50.288;28.624;2023-02-03T01:13:44;98505.32;;;-0.51;100.00
60337;BME280;46978;50.288;28.624;2023-02-03T01:14:45;98508.73;;;-0.52;100.00
60337;BME280;46978;50.288;28.624;2023-02-03T01:15:47;98501.91;;;-0.53;100.00
60337;BME280;46978;50.288;28.624;2023-02-03T01:16:49;98501.91;;;-0.53;100.00
60337;BME280;46978;50.288;28.624;2023-02-03T01:17:51;98501.91;;;-0.53;100.00
60337;BME280;46978;50.288;28.624;2023-02-03T01:18:53;98504.44;;;-0.55;100.00
60337;BME280;46978;50.288;28.624;2023-02-03T01:19:55;98507.00;;;-0.53;100.00
60337;BME280;46978;50.288;28.624;2023-02-03T01:20:57;98506.98;;;-0.55;100.00
60337;BME280;46978;50.288;28.624;2023-02-03T01:22:01;98495.95;;;-0.56;100.00
60337;BME280;46978;50.288;28.624;2023-02-03T01:23:03;98500.17;;;-0.56;100.00
60337;BME280;46978;50.288;28.624;2023-02-03T01:24:04;98497.64;;;-0.55;100.00
60337;BME280;46978;50.288;28.624;2023-02-03T01:25:07;98496.81;;;-0.53;100.00
60337;BME280;46978;50.288;28.624;2023-02-03T01:26:15;98493.44;;;-0.52;100.00
60337;BME280;46978;50.288;28.624;2023-02-03T01:27:17;98499.37;;;-0.52;100.00
60337;BME280;46978;50.288;28.624;2023-02-03T01:28:18;98499.37;;;-0.52;100.00
60337;BME280;46978;50.288;28.624;2023-02-03T01:29:20;98496.85;;;-0.50;100.00
60337;BME280;46978;50.288;28.624;2023-02-03T01:30:22;98499.40;;;-0.50;100.00
60337;BME280;46978;50.288;28.624;2023-02-03T01:31:29;98495.12;;;-0.51;100.00
60337;BME280;46978;50.288;28.624;2023-02-03T01:32:31;98494.28;;;-0.52;100.00
60337;BME280;46978;50.288;28.624;2023-02-03T01:33:33;98495.98;;;-0.52;100.00
60337;BME280;46978;50.288;28.624;2023-02-03T01:34:35;98499.37;;;-0.52;100.00
60337;BME280;46978;50.288;28.624;2023-02-03T01:35:37;98495.98;;;-0.52;100.00
60337;BME280;46978;50.288;28.624;2023-02-03T01:36:39;98502.73;;;-0.55;100.00
60337;BME280;46978;50.288;28.624;2023-02-03T01:37:40;98501.89;;;-0.55;100.00
60337;BME280;46978;50.288;28.624;2023-02-03T01:38:43;98503.58;;;-0.57;100.00
60337;BME280;46978;50.288;28.624;2023-02-03T01:39:45;98508.67;;;-0.57;100.00
60337;BME280;46978;50.288;28.624;2023-02-03T01:40:47;98504.41;;;-0.58;100.00
60337;BME280;46978;50.288;28.624;2023-02-03T01:41:48;98503.55;;;-0.59;100.00
60337;BME280;46978;50.288;28.624;2023-02-03T01:42:50;98503.58;;;-0.57;100.00
60337;BME280;46978;50.288;28.624;2023-02-03T01:43:54;98506.14;;;-0.56;100.00
60337;BME280;46978;50.288;28.624;2023-02-03T01:44:56;98494.23;;;-0.57;100.00
60337;BME280;46978;50.288;28.624;2023-02-03T01:45:59;98495.95;;;-0.56;100.00
60337;BME280;46978;50.288;28.624;2023-02-03T01:47:02;98493.40;;;-0.56;100.00
60337;BME280;46978;50.288;28.624;2023-02-03T01:48:07;98491.72;;;-0.53;100.00
60337;BME280;46978;50.288;28.624;2023-02-03T01:49:17;98492.58;;;-0.51;100.00
60337;BME280;46978;50.288;28.624;2023-02-03T01:51:25;98496.85;;;-0.50;100.00
60337;BME280;46978;50.288;28.624;2023-02-03T01:52:28;98501.95;;;-0.50;100.00
60337;BME280;46978;50.288;28.624;2023-02-03T01:53:30;98504.49;;;-0.50;100.00
60337;BME280;46978;50.288;28.624;2023-02-03T01:54:36;98505.32;;;-0.51;100.00
60337;BME280;46978;50.288;28.624;2023-02-03T01:55:46;98500.19;;;-0.55;100.00
60337;BME280;46978;50.288;28.624;2023-02-03T01:56:50;98495.97;;;-0.54;100.00
60337;BME280;46978;50.288;28.624;2023-02-03T01:57:56;98496.81;;;-0.53;100.00
60337;BME280;46978;50.288;28.624;2023-02-03T01:58:58;98501.10;;;-0.51;100.00
60337;BME280;46978;50.288;28.624;2023-02-03T02:00:02;98495.15;;;-0.50;100.00
60337;BME280;46978;50.288;28.624;2023-02-03T02:01:05;98501.97;;;-0.49;100.00
60337;BME280;46978;50.288;28.624;2023-02-03T02:02:07;98497.70;;;-0.50;100.00
60337;BME280;46978;50.288;28.624;2023-02-03T02:03:09;98506.23;;;-0.48;100.00
60337;BME280;46978;50.288;28.624;2023-02-03T02:04:11;98501.14;;;-0.48;100.00
60337;BME280;46978;50.288;28.624;2023-02-03T02:05:21;98505.38;;;-0.47;100.00
60337;BME280;46978;50.288;28.624;2023-02-03T02:06:22;98504.55;;;-0.46;100.00
60337;BME280;46978;50.288;28.624;2023-02-03T02:07:23;98509.67;;;-0.44;100.00
60337;BME280;46978;50.288;28.624;2023-02-03T02:08:26;98515.63;;;-0.42;100.00
60337;BME280;46978;50.288;28.624;2023-02-03T02:09:28;98513.09;;;-0.41;100.00
60337;BME280;46978;50.288;28.624;2023-02-03T02:10:30;98507.19;;;-0.38;100.00
60337;BME280;46978;50.288;28.624;2023-02-03T02:11:33;98508.91;;;-0.37;100.00
60337;BME280;46978;50.288;28.624;2023-02-03T02:12:34;98513.17;;;-0.34;100.00
60337;BME280;46978;50.288;28.624;2023-02-03T02:13:36;98516.58;;;-0.35;100.00
60337;BME280;46978;50.288;28.624;2023-02-03T02:14:39;98515.70;;;-0.36;100.00
60337;BME280;46978;50.288;28.624;2023-02-03T02:15:53;98520.80;;;-0.36;100.00
60337;BME280;46978;50.288;28.624;2023-02-03T02:16:57;98520.80;;;-0.36;100.00
60337;BME280;46978;50.288;28.624;2023-02-03T02:22:23;98518.23;;;-0.38;100.00
60337;BME280;46978;50.288;28.624;2023-02-03T02:24:56;98512.29;;;-0.38;100.00
60337;BME280;46978;50.288;28.624;2023-02-03T02:34:13;98512.31;;;-0.37;100.00
60337;BME280;46978;50.288;28.624;2023-02-03T02:37:06;98511.47;;;-0.37;100.00
60337;BME280;46978;50.288;28.624;2023-02-03T02:39:59;98515.70;;;-0.36;100.00
60337;BME280;46978;50.288;28.624;2023-02-03T02:41:09;98518.25;;;-0.36;100.00
60337;BME280;46978;50.288;28.624;2023-02-03T02:42:15;98519.95;;;-0.37;100.00
60337;BME280;46978;50.288;28.624;2023-02-03T02:43:40;98515.69;;;-0.38;100.00
60337;BME280;46978;50.288;28.624;2023-02-03T02:44:52;98519.11;;;-0.37;100.00
60337;BME280;46978;50.288;28.624;2023-02-03T02:46:05;98521.64;;;-0.39;100.00
60337;BME280;46978;50.288;28.624;2023-02-03T02:47:10;98522.48;;;-0.38;100.00
60337;BME280;46978;50.288;28.624;2023-02-03T02:48:35;98522.48;;;-0.38;100.00
60337;BME280;46978;50.288;28.624;2023-02-03T02:49:43;98526.73;;;-0.39;100.00
60337;BME280;46978;50.288;28.624;2023-02-03T02:50:48;98528.43;;;-0.38;100.00
60337;BME280;46978;50.288;28.624;2023-02-03T02:51:52;98524.20;;;-0.37;100.00
60337;BME280;46978;50.288;28.624;2023-02-03T02:52:55;98522.48;;;-0.38;100.00
60337;BME280;46978;50.288;28.624;2023-02-03T02:54:01;98523.34;;;-0.36;100.00
60337;BME280;46978;50.288;28.624;2023-02-03T02:55:07;98522.50;;;-0.37;100.00
60337;BME280;46978;50.288;28.624;2023-02-03T02:56:10;98519.95;;;-0.37;100.00
60337;BME280;46978;50.288;28.624;2023-02-03T02:57:14;98521.67;;;-0.35;100.00
60337;BME280;46978;50.288;28.624;2023-02-03T02:58:19;98526.78;;;-0.35;100.00
60337;BME280;46978;50.288;28.624;2023-02-03T02:59:22;98525.07;;;-0.35;100.00
60337;BME280;46978;50.288;28.624;2023-02-03T03:00:24;98522.52;;;-0.35;100.00
60337;BME280;46978;50.288;28.624;2023-02-03T03:01:25;98523.37;;;-0.34;100.00
60337;BME280;46978;50.288;28.624;2023-02-03T03:02:32;98529.34;;;-0.34;100.00
60337;BME280;46978;50.288;28.624;2023-02-03T03:03:34;98522.52;;;-0.35;100.00
60337;BME280;46978;50.288;28.624;2023-02-03T03:04:36;98520.80;;;-0.36;100.00
60337;BME280;46978;50.288;28.624;2023-02-03T03:05:40;98522.52;;;-0.35;100.00
60337;BME280;46978;50.288;28.624;2023-02-03T03:07:53;98525.09;;;-0.33;100.00
60337;BME280;46978;50.288;28.624;2023-02-03T03:09:01;98525.94;;;-0.33;100.00
60337;BME280;46978;50.288;28.624;2023-02-03T03:10:07;98536.13;;;-0.33;100.00
60337;BME280;46978;50.288;28.624;2023-02-03T03:11:08;98536.19;;;-0.28;100.00
60337;BME280;46978;50.288;28.624;2023-02-03T03:12:16;98531.97;;;-0.28;100.00
60337;BME280;46978;50.288;28.624;2023-02-03T03:13:23;98532.81;;;-0.27;100.00
60337;BME280;46978;50.288;28.624;2023-02-03T03:14:22;98527.69;;;-0.29;100.00
60337;BME280;46978;50.288;28.624;2023-02-03T03:15:28;98522.58;;;-0.30;100.00
60337;BME280;46978;50.288;28.624;2023-02-03T03:16:33;98531.07;;;-0.30;100.00
60337;BME280;46978;50.288;28.624;2023-02-03T03:17:42;98524.28;;;-0.31;100.00
60337;BME280;46978;50.288;28.624;2023-02-03T03:18:48;98526.83;;;-0.31;100.00
60337;BME280;46978;50.288;28.624;2023-02-03T03:19:53;98521.73;;;-0.31;100.00
60337;BME280;46978;50.288;28.624;2023-02-03T03:20:57;98530.22;;;-0.30;100.00
60337;BME280;46978;50.288;28.624;2023-02-03T03:23:26;98529.37;;;-0.31;100.00
60337;BME280;46978;50.288;28.624;2023-02-03T03:24:36;98527.66;;;-0.32;100.00
60337;BME280;46978;50.288;28.624;2023-02-03T03:25:43;98527.66;;;-0.32;100.00
60337;BME280;46978;50.288;28.624;2023-02-03T03:27:58;98531.03;;;-0.33;100.00
60337;BME280;46978;50.288;28.624;2023-02-03T03:29:06;98528.47;;;-0.34;100.00
60337;BME280;46978;50.288;28.624;2023-02-03T03:30:16;98526.80;;;-0.34;100.00
60337;BME280;46978;50.288;28.624;2023-02-03T03:31:19;98534.44;;;-0.34;100.00
60337;BME280;46978;50.288;28.624;2023-02-03T03:32:21;98531.03;;;-0.33;100.00
60337;BME280;46978;50.288;28.624;2023-02-03T03:33:23;98534.46;;;-0.32;100.00
60337;BME280;46978;50.288;28.624;2023-02-03T03:34:25;98543.80;;;-0.31;100.00
60337;BME280;46978;50.288;28.624;2023-02-03T03:35:36;98534.48;;;-0.31;100.00
60337;BME280;46978;50.288;28.624;2023-02-03T03:36:47;98538.72;;;-0.30;100.00
60337;BME280;46978;50.288;28.624;2023-02-03T03:37:59;98540.42;;;-0.30;100.00
60337;BME280;46978;50.288;28.624;2023-02-03T03:40:25;98540.42;;;-0.30;100.00
60337;BME280;46978;50.288;28.624;2023-02-03T03:41:36;98540.42;;;-0.30;100.00
60337;BME280;46978;50.288;28.624;2023-02-03T03:42:40;98540.44;;;-0.29;100.00
60337;BME280;46978;50.288;28.624;2023-02-03T03:43:44;98544.72;;;-0.28;100.00
60337;BME280;46978;50.288;28.624;2023-02-03T03:49:54;98544.75;;;-0.25;100.00
60337;BME280;46978;50.288;28.624;2023-02-03T03:51:13;98551.52;;;-0.25;100.00
60337;BME280;46978;50.288;28.624;2023-02-03T03:52:08;98549.84;;;-0.25;100.00
60337;BME280;46978;50.288;28.624;2023-02-03T03:53:12;98543.88;;;-0.25;100.00
60337;BME280;46978;50.288;28.624;2023-02-03T03:54:18;98550.67;;;-0.26;100.00
60337;BME280;46978;50.288;28.624;2023-02-03T03:55:21;98554.95;;;-0.25;100.00
60337;BME280;46978;50.288;28.624;2023-02-03T03:56:30;98550.67;;;-0.26;100.00
60337;BME280;46978;50.288;28.624;2023-02-03T03:57:42;98553.22;;;-0.26;100.00
60337;BME280;46978;50.288;28.624;2023-02-03T03:58:42;98551.50;;;-0.27;100.00
60337;BME280;46978;50.288;28.624;2023-02-03T03:59:47;98554.93;;;-0.26;100.00
60337;BME280;46978;50.288;28.624;2023-02-03T04:00:52;98556.59;;;-0.27;100.00
60337;BME280;46978;50.288;28.624;2023-02-03T04:01:56;98559.13;;;-0.28;100.00
60337;BME280;46978;50.288;28.624;2023-02-03T04:03:04;98559.11;;;-0.30;100.00
60337;BME280;46978;50.288;28.624;2023-02-03T04:04:07;98565.07;;;-0.31;100.00
60337;BME280;46978;50.288;28.624;2023-02-03T04:05:11;98560.77;;;-0.33;100.00
60337;BME280;46978;50.288;28.624;2023-02-03T04:06:15;98570.11;;;-0.35;100.00
60337;BME280;46978;50.288;28.624;2023-02-03T04:07:16;98563.27;;;-0.38;100.00
60337;BME280;46978;50.288;28.624;2023-02-03T04:08:18;98564.95;;;-0.40;100.00
60337;BME280;46978;50.288;28.624;2023-02-03T04:09:20;98567.48;;;-0.42;100.00
60337;BME280;46978;50.288;28.624;2023-02-03T04:10:30;98567.42;;;-0.46;100.00
60337;BME280;46978;50.288;28.624;2023-02-03T04:11:33;98571.59;;;-0.50;100.00
60337;BME280;46978;50.288;28.624;2023-02-03T04:12:34;98577.52;;;-0.54;100.00
60337;BME280;46978;50.288;28.624;2023-02-03T04:13:36;98575.79;;;-0.55;100.00
60337;BME280;46978;50.288;28.624;2023-02-03T04:14:37;98574.94;;;-0.56;100.00
60337;BME280;46978;50.288;28.624;2023-02-03T04:15:39;98580.02;;;-0.57;100.00
60337;BME280;46978;50.288;28.624;2023-02-03T04:16:41;98579.12;;;-0.59;100.00
60337;BME280;46978;50.288;28.624;2023-02-03T04:17:42;98589.25;;;-0.64;100.00
60337;BME280;46978;50.288;28.624;2023-02-03T04:20:30;98584.11;;;-0.67;100.00
60337;BME280;46978;50.288;28.624;2023-02-03T04:21:32;98588.34;;;-0.69;100.00
60337;BME280;46978;50.288;28.624;2023-02-03T04:22:34;98598.50;;;-0.70;100.00
60337;BME280;46978;50.288;28.624;2023-02-03T04:23:37;98585.67;;;-0.77;100.00
60337;BME280;46978;50.288;28.624;2023-02-03T04:24:38;98589.05;;;-0.78;100.00
60337;BME280;46978;50.288;28.624;2023-02-03T04:25:40;98595.00;;;-0.79;100.00
60337;BME280;46978;50.288;28.624;2023-02-03T04:26:42;98594.97;;;-0.80;100.00
60337;BME280;46978;50.288;28.624;2023-02-03T04:27:44;98588.98;;;-0.82;100.00
60337;BME280;46978;50.288;28.624;2023-02-03T04:28:45;98599.97;;;-0.86;100.00
60337;BME280;46978;50.288;28.624;2023-02-03T04:29:47;98589.78;;;-0.86;100.00
60337;BME280;46978;50.288;28.624;2023-02-03T04:31:09;98589.78;;;-0.86;100.00
60337;BME280;46978;50.288;28.624;2023-02-03T04:32:10;98599.07;;;-0.88;100.00
60337;BME280;46978;50.288;28.624;2023-02-03T04:33:12;98600.75;;;-0.91;100.00
60337;BME280;46978;50.288;28.624;2023-02-03T04:34:14;98597.36;;;-0.91;100.00
60337;BME280;46978;50.288;28.624;2023-02-03T04:35:15;98606.64;;;-0.93;100.00
60337;BME280;46978;50.288;28.624;2023-02-03T04:36:17;98604.02;;;-0.98;100.00
60337;BME280;46978;50.288;28.624;2023-02-03T04:37:19;98598.86;;;-1.02;100.00
60337;BME280;46978;50.288;28.624;2023-02-03T04:38:20;98602.23;;;-1.05;100.00
60337;BME280;46978;50.288;28.624;2023-02-03T04:39:22;98605.50;;;-1.12;100.00
60337;BME280;46978;50.288;28.624;2023-02-03T04:40:24;98607.20;;;-1.13;100.00
60337;BME280;46978;50.288;28.624;2023-02-03T04:41:26;98602.08;;;-1.14;100.00
60337;BME280;46978;50.288;28.624;2023-02-03T04:42:27;98608.81;;;-1.16;100.00
60337;BME280;46978;50.288;28.624;2023-02-03T04:43:29;98622.32;;;-1.22;100.00
60337;BME280;46978;50.288;28.624;2023-02-03T04:44:31;98618.08;;;-1.21;100.00
60337;BME280;46978;50.288;28.624;2023-02-03T04:45:33;98625.69;;;-1.23;100.00
60337;BME280;46978;50.288;28.624;2023-02-03T04:46:34;98623.12;;;-1.24;100.00
60337;BME280;46978;50.288;28.624;2023-02-03T04:47:38;98615.42;;;-1.28;100.00
60337;BME280;46978;50.288;28.624;2023-02-03T04:48:40;98625.61;;;-1.28;100.00
60337;BME280;46978;50.288;28.624;2023-02-03T04:49:41;98623.80;;;-1.35;100.00
60337;BME280;46978;50.288;28.624;2023-02-03T04:50:44;98629.74;;;-1.34;100.00
60337;BME280;46978;50.288;28.624;2023-02-03T04:51:48;98630.59;;;-1.34;100.00
60337;BME280;46978;50.288;28.624;2023-02-03T04:52:50;98637.35;;;-1.36;100.00
60337;BME280;46978;50.288;28.624;2023-02-03T04:53:51;98634.81;;;-1.36;100.00
60337;BME280;46978;50.288;28.624;2023-02-03T04:54:53;98633.94;;;-1.38;100.00
60337;BME280;46978;50.288;28.624;2023-02-03T04:55:55;98633.91;;;-1.39;100.00
60337;BME280;46978;50.288;28.624;2023-02-03T04:56:57;98637.30;;;-1.39;100.00
60337;BME280;46978;50.288;28.624;2023-02-03T04:57:59;98635.55;;;-1.41;100.00
60337;BME280;46978;50.288;28.624;2023-02-03T04:59:01;98644.08;;;-1.39;100.00
60337;BME280;46978;50.288;28.624;2023-02-03T05:00:04;98637.22;;;-1.43;100.00
60337;BME280;46978;50.288;28.624;2023-02-03T05:01:07;98638.06;;;-1.43;100.00
60337;BME280;46978;50.288;28.624;2023-02-03T05:02:09;98642.33;;;-1.42;100.00
60337;BME280;46978;50.288;28.624;2023-02-03T05:03:11;98645.69;;;-1.43;100.00
60337;BME280;46978;50.288;28.624;2023-02-03T05:04:13;98652.45;;;-1.45;100.00
60337;BME280;46978;50.288;28.624;2023-02-03T05:05:14;98650.76;;;-1.45;100.00
60337;BME280;46978;50.288;28.624;2023-02-03T05:06:25;98655.84;;;-1.45;100.00
60337;BME280;46978;50.288;28.624;2023-02-03T05:07:27;98652.31;;;-1.53;100.00
60337;BME280;46978;50.288;28.624;2023-02-03T05:08:29;98652.31;;;-1.53;100.00
60337;BME280;46978;50.288;28.624;2023-02-03T05:09:31;98660.00;;;-1.50;100.00
60337;BME280;46978;50.288;28.624;2023-02-03T05:10:32;98660.84;;;-1.49;100.00
60337;BME280;46978;50.288;28.624;2023-02-03T05:11:34;98651.55;;;-1.49;100.00
60337;BME280;46978;50.288;28.624;2023-02-03T05:12:36;98654.97;;;-1.47;100.00
60337;BME280;46978;50.288;28.624;2023-02-03T05:13:38;98660.91;;;-1.46;100.00
60337;BME280;46978;50.288;28.624;2023-02-03T05:14:39;98659.21;;;-1.47;100.00
60337;BME280;46978;50.288;28.624;2023-02-03T05:15:41;98657.52;;;-1.47;100.00
60337;BME280;46978;50.288;28.624;2023-02-03T05:16:43;98660.06;;;-1.47;100.00
60337;BME280;46978;50.288;28.624;2023-02-03T05:17:45;98665.17;;;-1.45;100.00
60337;BME280;46978;50.288;28.624;2023-02-03T05:18:46;98667.69;;;-1.47;100.00
60337;BME280;46978;50.288;28.624;2023-02-03T05:19:48;98671.11;;;-1.45;100.00
60337;BME280;46978;50.288;28.624;2023-02-03T05:20:50;98669.45;;;-1.44;100.00
60337;BME280;46978;50.288;28.624;2023-02-03T05:21:52;98662.63;;;-1.45;100.00
60337;BME280;46978;50.288;28.624;2023-02-03T05:22:53;98666.02;;;-1.45;100.00
60337;BME280;46978;50.288;28.624;2023-02-03T05:23:55;98673.66;;;-1.45;100.00
60337;BME280;46978;50.288;28.624;2023-02-03T05:24:57;98676.20;;;-1.45;100.00
60337;BME280;46978;50.288;28.624;2023-02-03T05:25:58;98668.54;;;-1.46;100.00
60337;BME280;46978;50.288;28.624;2023-02-03T05:27:00;98680.44;;;-1.45;100.00
60337;BME280;46978;50.288;28.624;2023-02-03T05:28:02;98677.87;;;-1.47;100.00
60337;BME280;46978;50.288;28.624;2023-02-03T05:29:04;98678.72;;;-1.46;100.00
60337;BME280;46978;50.288;28.624;2023-02-03T05:30:08;98681.26;;;-1.46;100.00
60337;BME280;46978;50.288;28.624;2023-02-03T05:31:10;98682.17;;;-1.44;100.00
60337;BME280;46978;50.288;28.624;2023-02-03T05:32:12;98670.27;;;-1.45;100.00
60337;BME280;46978;50.288;28.624;2023-02-03T05:33:14;98682.14;;;-1.46;100.00
60337;BME280;46978;50.288;28.624;2023-02-03T05:34:15;98677.84;;;-1.48;100.00
60337;BME280;46978;50.288;28.624;2023-02-03T05:35:17;98683.80;;;-1.46;100.00
60337;BME280;46978;50.288;28.624;2023-02-03T05:36:19;98684.66;;;-1.47;100.00
60337;BME280;46978;50.288;28.624;2023-02-03T05:37:21;98687.23;;;-1.46;100.00
60337;BME280;46978;50.288;28.624;2023-02-03T05:38:23;98682.98;;;-1.45;100.00
60337;BME280;46978;50.288;28.624;2023-02-03T05:39:24;98683.02;;;-1.43;100.00
60337;BME280;46978;50.288;28.624;2023-02-03T05:40:26;98682.98;;;-1.45;100.00
60337;BME280;46978;50.288;28.624;2023-02-03T05:41:28;98687.26;;;-1.44;100.00
60337;BME280;46978;50.288;28.624;2023-02-03T05:42:30;98691.50;;;-1.43;100.00
60337;BME280;46978;50.288;28.624;2023-02-03T05:43:32;98690.65;;;-1.43;100.00
60337;BME280;46978;50.288;28.624;2023-02-03T05:44:34;98690.65;;;-1.43;100.00
60337;BME280;46978;50.288;28.624;2023-02-03T05:45:35;98693.20;;;-1.43;100.00
60337;BME280;46978;50.288;28.624;2023-02-03T05:46:37;98687.28;;;-1.42;100.00
60337;BME280;46978;50.288;28.624;2023-02-03T05:47:39;98695.77;;;-1.42;100.00
60337;BME280;46978;50.288;28.624;2023-02-03T05:48:40;98696.59;;;-1.43;100.00
60337;BME280;46978;50.288;28.624;2023-02-03T05:49:42;98697.47;;;-1.42;100.00
60337;BME280;46978;50.288;28.624;2023-02-03T05:50:44;98703.41;;;-1.42;100.00
60337;BME280;46978;50.288;28.624;2023-02-03T05:51:46;98700.04;;;-1.41;100.00
60337;BME280;46978;50.288;28.624;2023-02-03T05:52:48;98700.89;;;-1.40;100.00
60337;BME280;46978;50.288;28.624;2023-02-03T05:53:50;98710.25;;;-1.39;100.00
60337;BME280;46978;50.288;28.624;2023-02-03T05:54:51;98708.55;;;-1.39;100.00
60337;BME280;46978;50.288;28.624;2023-02-03T05:55:53;98701.73;;;-1.40;100.00
60337;BME280;46978;50.288;28.624;2023-02-03T05:56:55;98706.00;;;-1.39;100.00
60337;BME280;46978;50.288;28.624;2023-02-03T05:57:57;98708.55;;;-1.39;100.00